Time;durP1;ratioP1;P1;durP2;ratioP2;P2;SDS_P1;SDS_P2;PMS_P1;PMS_P2;Temp;Humidity;BMP_temperature;BMP_pressure;BME280_temperature;BME280_humidity;BME280_pressure;Samples;Min_cycle;Max_cycle;Signal;HPM_P1;HPM_P2
2021/08/24 00:00:42;;;;;;;0.70;0.70;;;10.90;99.90;;;;;;5014783;28;20206;-82
2021/08/24 00:03:08;;;;;;;3.40;1.52;;;10.90;99.90;;;;;;5015170;28;20206;-83
2021/08/24 00:05:36;;;;;;;2.58;1.48;;;10.90;99.90;;;;;;5013451;28;20237;-82
2021/08/24 00:08:06;;;;;;;0.70;0.70;;;11.00;99.90;;;;;;5033413;28;20201;-82
2021/08/24 00:10:39;;;;;;;1.73;1.60;;;10.90;99.90;;;;;;5019613;28;20205;-83
2021/08/24 00:13:06;;;;;;;1.00;0.93;;;10.90;99.90;;;;;;5037904;28;20194;-83
2021/08/24 00:15:33;;;;;;;0.60;0.60;;;10.90;99.90;;;;;;5018823;28;20198;-83
2021/08/24 00:18:01;;;;;;;1.00;0.85;;;10.90;99.90;;;;;;5017588;28;20204;-83
2021/08/24 00:20:30;;;;;;;0.60;0.60;;;10.90;99.90;;;;;;5018879;28;20696;-82
2021/08/24 00:22:57;;;;;;;0.60;0.60;;;10.90;99.90;;;;;;5035558;28;20249;-82
2021/08/24 00:25:24;;;;;;;0.50;0.50;;;10.90;99.90;;;;;;5019336;28;20627;-82
2021/08/24 00:27:49;;;;;;;0.50;0.50;;;10.90;99.90;;;;;;5018682;28;20213;-83
2021/08/24 00:30:15;;;;;;;1.08;1.00;;;10.90;99.90;;;;;;5019322;28;20202;-83
2021/08/24 00:32:41;;;;;;;0.60;0.60;;;10.90;99.90;;;;;;5016529;28;20220;-82
2021/08/24 00:35:07;;;;;;;1.42;1.33;;;10.90;99.90;;;;;;5024806;28;20264;-83
2021/08/24 00:37:33;;;;;;;0.80;0.80;;;10.90;99.90;;;;;;5019191;28;20300;-83
2021/08/24 00:39:59;;;;;;;0.70;0.70;;;10.80;99.90;;;;;;5016873;28;20628;-83
2021/08/24 00:42:24;;;;;;;0.73;0.73;;;10.80;99.90;;;;;;5019082;28;20260;-83
2021/08/24 00:44:50;;;;;;;0.88;0.88;;;10.70;99.90;;;;;;5031116;28;20197;-83
2021/08/24 00:47:20;;;;;;;2.35;1.00;;;10.70;99.90;;;;;;5022074;28;20553;-83
2021/08/24 00:49:47;;;;;;;0.60;0.60;;;10.70;99.90;;;;;;5018013;28;20259;-83
2021/08/24 00:52:18;;;;;;;2.03;1.50;;;10.70;99.90;;;;;;5052482;28;20324;-83
2021/08/24 00:54:45;;;;;;;0.60;0.60;;;10.70;99.90;;;;;;5039838;28;20206;-83
2021/08/24 00:57:22;;;;;;;0.60;0.60;;;10.60;99.90;;;;;;5053744;28;20201;-82
2021/08/24 00:59:52;;;;;;;0.70;0.70;;;10.70;99.90;;;;;;5025903;28;20206;-83
2021/08/24 01:02:20;;;;;;;1.05;1.02;;;10.60;99.90;;;;;;5052706;28;20220;-81
2021/08/24 01:04:49;;;;;;;1.13;1.02;;;10.70;99.90;;;;;;5045280;22;20241;-73
2021/08/24 01:07:17;;;;;;;1.15;1.05;;;10.60;99.90;;;;;;5053899;28;20201;-74
2021/08/24 01:09:59;;;;;;;0.60;0.60;;;10.60;99.90;;;;;;5053561;28;20651;-74
2021/08/24 01:12:59;;;;;;;1.10;1.02;;;10.60;99.90;;;;;;5053569;28;20193;-74
2021/08/24 01:15:50;;;;;;;0.73;0.73;;;10.60;99.90;;;;;;5053835;28;20668;-74
2021/08/24 01:18:37;;;;;;;1.02;0.98;;;10.60;99.90;;;;;;5034332;28;20201;-74
2021/08/24 01:21:21;;;;;;;0.75;0.75;;;10.60;99.90;;;;;;5054658;28;20208;-74
2021/08/24 01:24:18;;;;;;;0.73;0.73;;;10.60;99.90;;;;;;5053693;28;20206;-73
2021/08/24 01:26:51;;;;;;;0.90;0.90;;;10.60;99.90;;;;;;5034443;28;20558;-74
2021/08/24 01:29:38;;;;;;;0.70;0.70;;;10.60;99.90;;;;;;5053291;28;20671;-74
2021/08/24 01:32:06;;;;;;;0.60;0.60;;;10.50;99.90;;;;;;5054419;28;20201;-74
2021/08/24 01:34:51;;;;;;;1.45;0.77;;;10.50;99.90;;;;;;5035343;28;20205;-74
2021/08/24 01:37:54;;;;;;;1.25;1.17;;;10.40;99.90;;;;;;5054441;28;20225;-74
2021/08/24 01:40:38;;;;;;;0.68;0.68;;;10.40;99.90;;;;;;5052707;28;20232;-73
2021/08/24 01:43:06;;;;;;;0.85;0.85;;;10.40;99.90;;;;;;5054298;28;20231;-74
2021/08/24 01:45:49;;;;;;;0.68;0.68;;;10.30;99.90;;;;;;5046313;28;20209;-74
2021/08/24 01:48:22;;;;;;;1.05;1.05;;;10.30;99.90;;;;;;5054297;28;20702;-74
2021/08/24 01:50:55;;;;;;;0.85;0.85;;;10.30;99.90;;;;;;5052856;28;20228;-74
2021/08/24 01:53:31;;;;;;;0.80;0.80;;;10.20;99.90;;;;;;5052726;28;20209;-73
2021/08/24 01:56:04;;;;;;;0.90;0.90;;;10.20;99.90;;;;;;5036136;28;20694;-74
2021/08/24 01:58:37;;;;;;;0.65;0.65;;;10.20;99.90;;;;;;5054222;28;20687;-74
2021/08/24 02:01:05;;;;;;;0.80;0.80;;;10.20;99.90;;;;;;5030844;28;20212;-74
2021/08/24 02:03:40;;;;;;;0.60;0.60;;;10.10;99.90;;;;;;5053604;28;20718;-73
2021/08/24 02:06:33;;;;;;;0.63;0.63;;;10.10;99.90;;;;;;5054125;28;20224;-73
2021/08/24 02:09:05;;;;;;;0.60;0.60;;;10.10;99.90;;;;;;5034787;28;20271;-74
2021/08/24 02:11:33;;;;;;;0.50;0.50;;;10.00;99.90;;;;;;5052397;28;20205;-74
2021/08/24 02:14:05;;;;;;;0.98;0.98;;;10.00;99.90;;;;;;5053735;28;20650;-74
2021/08/24 02:16:32;;;;;;;0.50;0.50;;;10.00;99.90;;;;;;5053575;28;20202;-74
2021/08/24 02:19:06;;;;;;;1.10;1.05;;;10.00;99.90;;;;;;5053298;28;20293;-74
2021/08/24 02:21:44;;;;;;;0.70;0.70;;;10.00;99.90;;;;;;5053334;28;20211;-74
2021/08/24 02:24:14;;;;;;;0.60;0.60;;;10.00;99.90;;;;;;5053569;28;20212;-74
2021/08/24 02:26:41;;;;;;;0.90;0.90;;;10.00;99.90;;;;;;5053509;28;20206;-75
2021/08/24 02:29:07;;;;;;;1.08;1.08;;;10.00;99.90;;;;;;5035512;28;20201;-73
2021/08/24 02:31:58;;;;;;;0.65;0.65;;;10.00;99.90;;;;;;5051249;28;20728;-74
2021/08/24 02:34:46;;;;;;;0.70;0.70;;;9.90;99.90;;;;;;5052883;28;20193;-74
2021/08/24 02:37:41;;;;;;;0.95;0.95;;;10.00;99.90;;;;;;5051382;28;20201;-74
2021/08/24 02:40:17;;;;;;;1.33;0.75;;;10.00;99.90;;;;;;5047992;28;20221;-74
2021/08/24 02:43:18;;;;;;;3.63;0.90;;;10.00;99.90;;;;;;5050834;28;20622;-73
2021/08/24 02:46:06;;;;;;;0.75;0.75;;;9.90;99.90;;;;;;5033525;28;20545;-74
2021/08/24 02:48:35;;;;;;;0.60;0.60;;;9.90;99.90;;;;;;5036494;28;20342;-74
2021/08/24 02:51:01;;;;;;;0.60;0.60;;;9.90;99.90;;;;;;5051758;28;20198;-73
2021/08/24 02:53:27;;;;;;;1.13;1.02;;;9.90;99.90;;;;;;5053024;28;20198;-74
2021/08/24 02:55:53;;;;;;;0.75;0.75;;;10.00;99.90;;;;;;5052121;28;20209;-74
2021/08/24 02:58:19;;;;;;;0.90;0.90;;;10.00;99.90;;;;;;5034821;28;20205;-74
2021/08/24 03:00:47;;;;;;;0.65;0.65;;;10.00;99.90;;;;;;5051461;28;20209;-74
2021/08/24 03:03:13;;;;;;;0.93;0.93;;;10.10;99.90;;;;;;5050970;28;20198;-74
2021/08/24 03:05:39;;;;;;;0.70;0.70;;;10.10;99.90;;;;;;5052578;28;20655;-74
2021/08/24 03:08:05;;;;;;;0.98;0.98;;;10.20;99.90;;;;;;5053025;28;20228;-74
2021/08/24 03:10:34;;;;;;;1.23;1.17;;;10.20;99.90;;;;;;5052455;28;20198;-74
2021/08/24 03:13:18;;;;;;;0.60;0.60;;;10.30;99.90;;;;;;5052507;28;20236;-74
2021/08/24 03:16:07;;;;;;;0.88;0.88;;;10.30;99.90;;;;;;5052279;28;20213;-74
2021/08/24 03:18:45;;;;;;;0.60;0.60;;;10.30;99.90;;;;;;5052126;28;20201;-74
2021/08/24 03:21:19;;;;;;;0.93;0.85;;;10.30;99.90;;;;;;5050923;28;20213;-74
2021/08/24 03:23:46;;;;;;;0.60;0.60;;;10.30;99.90;;;;;;5051231;28;20735;-74
2021/08/24 03:26:14;;;;;;;0.60;0.60;;;10.40;99.90;;;;;;5050850;28;20217;-74
2021/08/24 03:28:42;;;;;;;0.60;0.60;;;10.40;99.90;;;;;;5033660;28;20205;-74
2021/08/24 03:31:12;;;;;;;0.73;0.73;;;10.40;99.90;;;;;;5033206;28;20669;-74
2021/08/24 03:33:38;;;;;;;0.50;0.50;;;10.50;99.90;;;;;;5052055;28;20224;-74
2021/08/24 03:36:04;;;;;;;1.17;1.08;;;10.50;99.90;;;;;;5032039;28;20202;-74
2021/08/24 03:38:30;;;;;;;0.63;0.63;;;10.50;99.90;;;;;;5052158;28;20225;-74
2021/08/24 03:40:55;;;;;;;0.60;0.60;;;10.50;99.90;;;;;;5034677;28;20237;-73
2021/08/24 03:43:21;;;;;;;1.33;0.88;;;10.50;99.90;;;;;;5050354;28;20236;-74
2021/08/24 03:45:46;;;;;;;1.20;0.90;;;10.60;99.90;;;;;;5025374;28;20621;-74
2021/08/24 03:48:12;;;;;;;0.98;0.98;;;10.60;99.90;;;;;;5041191;28;20568;-74
2021/08/24 03:50:38;;;;;;;0.65;0.65;;;10.70;99.90;;;;;;5027553;28;20787;-73
2021/08/24 03:53:03;;;;;;;0.60;0.60;;;10.70;99.90;;;;;;5018909;28;20202;-74
2021/08/24 03:55:29;;;;;;;1.25;1.20;;;10.70;99.90;;;;;;5038498;28;20197;-74
2021/08/24 03:57:55;;;;;;;0.80;0.80;;;10.70;99.90;;;;;;5032982;28;20722;-74
2021/08/24 04:00:20;;;;;;;0.50;0.50;;;10.70;99.90;;;;;;5033967;28;20205;-74
2021/08/24 04:02:46;;;;;;;2.13;1.35;;;10.80;99.90;;;;;;5033770;28;20280;-74
2021/08/24 04:05:12;;;;;;;0.70;0.70;;;10.80;99.90;;;;;;5051704;28;20687;-74
2021/08/24 04:07:38;;;;;;;1.70;0.98;;;10.80;99.90;;;;;;5051767;28;20622;-74
2021/08/24 04:10:06;;;;;;;0.70;0.70;;;10.80;99.90;;;;;;5052195;28;20282;-74
2021/08/24 04:12:32;;;;;;;0.57;0.57;;;10.80;99.90;;;;;;5051697;28;20228;-74
2021/08/24 04:14:57;;;;;;;0.70;0.70;;;10.80;99.90;;;;;;5051529;28;20205;-74
2021/08/24 04:17:23;;;;;;;1.27;1.20;;;10.80;99.90;;;;;;5050019;28;20327;-74
2021/08/24 04:19:49;;;;;;;0.82;0.82;;;10.90;99.90;;;;;;5051531;28;20259;-74
2021/08/24 04:22:19;;;;;;;0.60;0.60;;;10.90;99.90;;;;;;5051825;28;20278;-74
2021/08/24 04:24:44;;;;;;;0.73;0.68;;;11.00;99.90;;;;;;5051766;28;20281;-74
2021/08/24 04:27:10;;;;;;;1.50;1.08;;;11.00;99.90;;;;;;5051915;28;20292;-74
2021/08/24 04:29:36;;;;;;;1.75;1.08;;;11.10;99.90;;;;;;5050153;28;20539;-74
2021/08/24 04:32:04;;;;;;;0.60;0.60;;;11.10;99.90;;;;;;5051853;28;20207;-74
2021/08/24 04:34:30;;;;;;;0.80;0.80;;;11.20;99.90;;;;;;5050280;28;20663;-74
2021/08/24 04:36:56;;;;;;;0.60;0.60;;;11.20;99.90;;;;;;5051022;28;20198;-74
2021/08/24 04:39:21;;;;;;;1.20;0.85;;;11.30;99.90;;;;;;5051503;28;20228;-74
2021/08/24 04:41:47;;;;;;;0.65;0.65;;;11.30;99.90;;;;;;5034253;28;20297;-74
2021/08/24 04:44:14;;;;;;;0.70;0.70;;;11.30;99.90;;;;;;5051878;28;20289;-74
2021/08/24 04:46:39;;;;;;;0.68;0.68;;;11.30;99.90;;;;;;5046538;28;20285;-74
2021/08/24 04:49:05;;;;;;;0.70;0.70;;;11.40;99.90;;;;;;5030533;28;20304;-74
2021/08/24 04:51:31;;;;;;;0.63;0.63;;;11.40;99.90;;;;;;5051562;28;20281;-73
2021/08/24 04:53:57;;;;;;;0.63;0.63;;;11.60;99.90;;;;;;5051851;28;20206;-74
2021/08/24 04:56:23;;;;;;;0.63;0.63;;;11.70;99.90;;;;;;5055036;28;20228;-74
2021/08/24 04:58:48;;;;;;;3.70;1.77;;;11.90;99.90;;;;;;5055378;28;20228;-73
2021/08/24 05:01:14;;;;;;;0.82;0.82;;;12.00;99.90;;;;;;5053670;28;20205;-74
2021/08/24 05:03:40;;;;;;;1.00;0.93;;;12.30;99.90;;;;;;5054635;28;20623;-73
2021/08/24 05:06:05;;;;;;;0.80;0.70;;;12.40;99.90;;;;;;5053053;28;20671;-74
2021/08/24 05:08:32;;;;;;;0.75;0.75;;;12.60;99.90;;;;;;5053390;28;20205;-74
2021/08/24 05:10:57;;;;;;;0.55;0.55;;;12.70;99.90;;;;;;5053431;28;20280;-74
2021/08/24 05:13:23;;;;;;;0.93;0.93;;;12.80;99.90;;;;;;5054883;28;20671;-74
2021/08/24 05:15:49;;;;;;;0.70;0.70;;;12.90;99.90;;;;;;5053595;28;20213;-74
2021/08/24 05:18:14;;;;;;;0.88;0.88;;;13.00;99.90;;;;;;5034697;28;20201;-73
2021/08/24 05:20:40;;;;;;;1.63;1.33;;;13.00;99.90;;;;;;5054829;28;20552;-73
2021/08/24 05:23:06;;;;;;;1.60;0.85;;;13.10;99.90;;;;;;5036905;28;20213;-73
2021/08/24 05:25:31;;;;;;;0.82;0.82;;;13.20;99.90;;;;;;5036687;28;20206;-74
2021/08/24 05:27:57;;;;;;;0.50;0.50;;;13.20;99.90;;;;;;5035645;28;20202;-74
2021/08/24 05:30:25;;;;;;;8.50;1.30;;;13.30;99.90;;;;;;5054481;28;20198;-74
2021/08/24 05:32:52;;;;;;;4.95;2.45;;;13.40;99.90;;;;;;5035293;28;20268;-74
2021/08/24 05:35:19;;;;;;;0.95;0.95;;;13.50;99.90;;;;;;5054437;28;20672;-74
2021/08/24 05:37:45;;;;;;;0.70;0.70;;;13.60;99.90;;;;;;5035261;28;20212;-73
2021/08/24 05:40:11;;;;;;;1.58;1.08;;;13.60;99.90;;;;;;5054690;28;20280;-74
2021/08/24 05:42:38;;;;;;;0.88;0.80;;;13.70;99.90;;;;;;5053139;28;20205;-74
2021/08/24 05:45:05;;;;;;;0.45;0.45;;;13.80;99.90;;;;;;5053474;28;20236;-74
2021/08/24 05:47:31;;;;;;;0.60;0.60;;;13.90;99.90;;;;;;5027464;28;20202;-74
2021/08/24 05:49:59;;;;;;;0.85;0.85;;;13.90;99.90;;;;;;5054769;28;20205;-74
2021/08/24 05:52:25;;;;;;;0.57;0.57;;;13.90;99.90;;;;;;5053895;28;20206;-74
2021/08/24 05:54:51;;;;;;;0.82;0.80;;;14.00;99.90;;;;;;5054134;28;20228;-74
2021/08/24 05:57:18;;;;;;;0.98;0.95;;;14.00;99.90;;;;;;5054191;28;20205;-74
2021/08/24 05:59:44;;;;;;;1.23;1.13;;;14.10;99.90;;;;;;5054239;28;20240;-73
2021/08/24 06:02:09;;;;;;;0.65;0.65;;;14.00;99.90;;;;;;5033187;28;20247;-74
2021/08/24 06:04:35;;;;;;;0.50;0.50;;;14.10;99.90;;;;;;5035532;28;20230;-73
2021/08/24 06:07:04;;;;;;;1.38;0.90;;;14.00;99.90;;;;;;5052081;28;20202;-74
2021/08/24 06:09:29;;;;;;;0.50;0.50;;;14.00;99.90;;;;;;5052315;28;20210;-74
2021/08/24 06:11:55;;;;;;;0.50;0.50;;;13.90;99.90;;;;;;5034794;28;20205;-74
2021/08/24 06:14:23;;;;;;;0.85;0.70;;;13.90;99.90;;;;;;5053736;28;20264;-74
2021/08/24 06:16:57;;;;;;;0.88;0.88;;;13.70;99.90;;;;;;5052407;28;20263;-74
2021/08/24 06:19:28;;;;;;;0.60;0.60;;;13.70;99.90;;;;;;5053614;28;20266;-74
2021/08/24 06:21:55;;;;;;;1.30;1.20;;;13.70;99.90;;;;;;5052224;28;20564;-74
2021/08/24 06:24:21;;;;;;;0.50;0.50;;;13.70;99.90;;;;;;5053252;28;20204;-74
2021/08/24 06:26:47;;;;;;;9.60;0.98;;;13.70;99.90;;;;;;5034553;28;20288;-74
2021/08/24 06:29:13;;;;;;;0.80;0.80;;;13.70;99.90;;;;;;5052710;28;20285;-74
2021/08/24 06:31:42;;;;;;;0.82;0.82;;;13.90;99.90;;;;;;5034159;28;20223;-74
2021/08/24 06:34:10;;;;;;;0.95;0.70;;;14.10;99.90;;;;;;5034165;28;20202;-74
2021/08/24 06:36:37;;;;;;;0.75;0.75;;;14.30;99.90;;;;;;5052923;28;20619;-74
2021/08/24 06:39:05;;;;;;;0.60;0.60;;;14.50;99.90;;;;;;5053522;28;20589;-73
2021/08/24 06:41:31;;;;;;;0.70;0.70;;;14.70;99.90;;;;;;5053157;28;20205;-73
2021/08/24 06:43:57;;;;;;;1.17;0.68;;;14.90;99.90;;;;;;5053845;28;20205;-74
2021/08/24 06:46:22;;;;;;;0.73;0.73;;;15.10;99.90;;;;;;5051791;28;20205;-74
2021/08/24 06:48:48;;;;;;;0.80;0.80;;;15.30;99.90;;;;;;5053428;28;20609;-74
2021/08/24 06:51:14;;;;;;;1.00;0.98;;;15.50;99.90;;;;;;5053403;28;20197;-73
2021/08/24 06:53:41;;;;;;;1.10;0.70;;;15.80;99.90;;;;;;5052790;28;20299;-73
2021/08/24 06:56:11;;;;;;;1.42;0.88;;;15.90;99.90;;;;;;5032586;28;20209;-74
2021/08/24 06:58:41;;;;;;;0.70;0.50;;;16.20;99.90;;;;;;5053016;28;20675;-74
2021/08/24 07:01:12;;;;;;;1.13;0.77;;;16.50;99.90;;;;;;5052588;28;20232;-74
2021/08/24 07:03:38;;;;;;;0.70;0.70;;;16.50;99.90;;;;;;5051226;28;20213;-74
2021/08/24 07:06:03;;;;;;;1.08;0.85;;;16.70;99.90;;;;;;5033645;28;20209;-73
2021/08/24 07:08:29;;;;;;;0.40;0.40;;;16.90;99.90;;;;;;5051332;28;20198;-73
2021/08/24 07:10:55;;;;;;;0.50;0.50;;;17.10;99.90;;;;;;5051564;28;20237;-75
2021/08/24 07:13:21;;;;;;;2.50;0.77;;;17.30;99.90;;;;;;5052485;28;20220;-73
2021/08/24 07:15:47;;;;;;;0.38;0.38;;;17.50;99.90;;;;;;5028720;28;20243;-74
2021/08/24 07:18:12;;;;;;;0.90;0.73;;;17.60;99.90;;;;;;5048916;28;20212;-74
2021/08/24 07:20:38;;;;;;;0.35;0.35;;;17.80;99.90;;;;;;5052163;28;20441;-74
2021/08/24 07:23:04;;;;;;;0.88;0.88;;;17.90;99.90;;;;;;5052498;28;20581;-74
2021/08/24 07:25:31;;;;;;;0.77;0.70;;;18.00;99.90;;;;;;5050501;28;20228;-74
2021/08/24 07:27:57;;;;;;;1.65;1.02;;;18.20;99.90;;;;;;5034616;28;20220;-73
2021/08/24 07:30:23;;;;;;;0.52;0.52;;;18.40;99.90;;;;;;5052547;28;20201;-73
2021/08/24 07:32:49;;;;;;;0.43;0.40;;;18.50;99.90;;;;;;5052578;28;20201;-73
2021/08/24 07:35:17;;;;;;;0.40;0.40;;;18.50;99.90;;;;;;5033708;28;20216;-73
2021/08/24 07:37:43;;;;;;;0.68;0.68;;;18.40;99.90;;;;;;5052233;28;20209;-73
2021/08/24 07:40:10;;;;;;;2.30;0.55;;;18.50;99.90;;;;;;5031357;28;20255;-73
2021/08/24 07:42:37;;;;;;;0.50;0.50;;;18.60;99.90;;;;;;5031488;28;20306;-73
2021/08/24 07:45:03;;;;;;;0.47;0.47;;;18.70;99.90;;;;;;5033113;28;20577;-75
2021/08/24 07:47:29;;;;;;;4.72;1.98;;;18.90;99.90;;;;;;5049661;28;20205;-75
2021/08/24 07:49:55;;;;;;;5.25;1.15;;;19.10;99.90;;;;;;5050558;28;20201;-75
2021/08/24 07:52:21;;;;;;;0.95;0.85;;;19.30;99.90;;;;;;5031121;28;20206;-75
2021/08/24 07:54:46;;;;;;;0.50;0.50;;;19.60;99.90;;;;;;5051675;28;20232;-74
2021/08/24 07:57:12;;;;;;;0.65;0.65;;;19.80;99.90;;;;;;5050326;28;20213;-76
2021/08/24 07:59:38;;;;;;;0.75;0.75;;;20.00;99.90;;;;;;5032451;28;20213;-75
2021/08/24 08:02:04;;;;;;;4.13;0.90;;;20.20;99.90;;;;;;5050039;28;20296;-75
2021/08/24 08:04:30;;;;;;;0.57;0.52;;;20.40;99.90;;;;;;5048820;28;20757;-75
2021/08/24 08:06:55;;;;;;;1.20;1.02;;;20.70;99.90;;;;;;5042939;28;20279;-76
2021/08/24 08:09:21;;;;;;;1.58;0.98;;;20.90;99.90;;;;;;5030420;28;20654;-75
2021/08/24 08:11:48;;;;;;;0.35;0.35;;;21.20;99.90;;;;;;5050913;28;20509;-77
2021/08/24 08:14:15;;;;;;;1.00;0.63;;;21.50;99.90;;;;;;5032891;28;20272;-76
2021/08/24 08:16:41;;;;;;;0.38;0.38;;;21.60;99.90;;;;;;5030694;28;20206;-77
2021/08/24 08:19:07;;;;;;;0.30;0.30;;;21.90;99.90;;;;;;5033018;28;20250;-77
2021/08/24 08:21:36;;;;;;;0.93;0.85;;;21.80;99.90;;;;;;5050838;28;20652;-77
2021/08/24 08:24:02;;;;;;;0.60;0.60;;;21.50;99.90;;;;;;5050583;28;20209;-76
2021/08/24 08:26:29;;;;;;;0.90;0.90;;;21.30;99.90;;;;;;5031128;28;20208;-75
2021/08/24 08:28:55;;;;;;;0.63;0.47;;;21.30;99.90;;;;;;5050956;28;20224;-75
2021/08/24 08:31:22;;;;;;;1.02;0.77;;;21.30;99.90;;;;;;5035488;28;20267;-74
2021/08/24 08:33:48;;;;;;;0.38;0.38;;;21.40;99.90;;;;;;5036986;28;20229;-78
2021/08/24 08:36:14;;;;;;;0.40;0.40;;;21.60;99.90;;;;;;5055811;28;20611;-78
2021/08/24 08:38:40;;;;;;;1.60;0.63;;;21.80;99.90;;;;;;5053043;28;20213;-76
2021/08/24 08:41:12;;;;;;;0.35;0.35;;;22.20;99.90;;;;;;5055915;28;20576;-78
2021/08/24 08:44:00;;;;;;;1.25;0.98;;;22.40;99.90;;;;;;5038738;28;20321;-75
2021/08/24 08:46:31;;;;;;;0.73;0.70;;;22.40;99.90;;;;;;5054587;28;20263;-75
2021/08/24 08:49:09;;;;;;;0.45;0.45;;;22.40;99.90;;;;;;5055296;28;20598;-74
2021/08/24 08:51:57;;;;;;;0.60;0.60;;;22.50;99.90;;;;;;5058307;28;20200;-72
2021/08/24 08:54:47;;;;;;;2.30;0.98;;;22.70;99.90;;;;;;5059140;28;20205;-75
2021/08/24 08:57:32;;;;;;;1.05;0.68;;;23.00;99.90;;;;;;5042558;28;20776;-77
2021/08/24 09:00:26;;;;;;;1.35;0.60;;;23.10;99.90;;;;;;5064467;28;20295;-75
2021/08/24 09:03:15;;;;;;;0.52;0.52;;;23.00;99.90;;;;;;5038905;28;20547;-75
2021/08/24 09:05:41;;;;;;;0.60;0.60;;;22.50;99.90;;;;;;5051035;28;20228;-76
2021/08/24 09:08:09;;;;;;;1.50;0.70;;;22.30;99.90;;;;;;5052433;28;20280;-75
2021/08/24 09:10:44;;;;;;;0.50;0.50;;;21.90;99.90;;;;;;5049093;28;20207;-75
2021/08/24 09:13:31;;;;;;;0.85;0.43;;;21.80;99.90;;;;;;5031222;28;20201;-76
2021/08/24 09:16:19;;;;;;;0.30;0.30;;;21.90;99.90;;;;;;5033389;28;20292;-75
2021/08/24 09:18:50;;;;;;;0.68;0.68;;;22.10;99.90;;;;;;5049007;28;20625;-75
2021/08/24 09:21:39;;;;;;;0.20;0.20;;;22.40;99.90;;;;;;5053787;28;20201;-77
2021/08/24 09:24:10;;;;;;;0.20;0.20;;;22.70;99.90;;;;;;5035464;28;20202;-77
2021/08/24 09:26:48;;;;;;;0.60;0.50;;;22.20;99.90;;;;;;5037186;28;20205;-74
2021/08/24 09:29:18;;;;;;;3.05;1.00;;;22.00;99.90;;;;;;5055699;28;20255;-75
2021/08/24 09:31:46;;;;;;;0.30;0.30;;;22.00;99.90;;;;;;5040228;28;20256;-76
2021/08/24 09:34:15;;;;;;;0.30;0.30;;;22.00;99.90;;;;;;5054950;28;20208;-75
2021/08/24 09:36:41;;;;;;;0.77;0.77;;;22.20;99.90;;;;;;5054762;28;20652;-76
2021/08/24 09:39:08;;;;;;;0.40;0.40;;;22.40;99.90;;;;;;5055339;28;20217;-76
2021/08/24 09:41:36;;;;;;;0.40;0.40;;;22.80;99.90;;;;;;5053329;28;20209;-75
2021/08/24 09:44:19;;;;;;;0.43;0.28;;;23.00;99.90;;;;;;5054613;28;20243;-75
2021/08/24 09:46:46;;;;;;;0.88;0.68;;;23.40;99.90;;;;;;5035839;28;20208;-73
2021/08/24 09:49:20;;;;;;;1.15;0.60;;;23.80;99.90;;;;;;5054859;28;20551;-75
2021/08/24 09:52:00;;;;;;;0.63;0.55;;;23.30;98.00;;;;;;5055220;28;20224;-76
2021/08/24 09:54:37;;;;;;;0.28;0.28;;;23.10;98.10;;;;;;5053550;28;20213;-75
2021/08/24 09:57:14;;;;;;;0.85;0.68;;;22.70;99.50;;;;;;5054410;28;20200;-75
2021/08/24 09:59:46;;;;;;;0.20;0.20;;;22.40;99.90;;;;;;5027315;28;20206;-75
2021/08/24 10:02:46;;;;;;;0.68;0.47;;;22.40;99.90;;;;;;5041268;28;20213;-75
2021/08/24 10:05:21;;;;;;;1.08;0.73;;;22.70;99.90;;;;;;4993877;28;20229;-74
2021/08/24 10:07:48;;;;;;;0.20;0.20;;;23.00;99.90;;;;;;5054153;28;20562;-75
2021/08/24 10:10:33;;;;;;;1.05;0.25;;;23.40;99.90;;;;;;5033924;28;20197;-75
2021/08/24 10:13:25;;;;;;;0.88;0.45;;;23.80;99.90;;;;;;5054074;28;20671;-75
2021/08/24 10:15:53;;;;;;;0.95;0.45;;;24.00;99.90;;;;;;5053941;28;20251;-76
2021/08/24 10:18:23;;;;;;;0.40;0.40;;;24.20;98.40;;;;;;5053325;28;20213;-76
2021/08/24 10:20:53;;;;;;;0.30;0.30;;;24.00;98.70;;;;;;5033154;28;20296;-76
2021/08/24 10:23:37;;;;;;;0.20;0.20;;;24.00;97.10;;;;;;5034291;28;20255;-76
2021/08/24 10:26:06;;;;;;;0.25;0.25;;;23.80;95.00;;;;;;5035687;28;20205;-75
2021/08/24 10:28:46;;;;;;;0.30;0.30;;;23.80;96.10;;;;;;5052313;28;20710;-75
2021/08/24 10:31:27;;;;;;;1.30;0.60;;;24.10;96.50;;;;;;5053711;28;20227;-74
2021/08/24 10:33:58;;;;;;;0.60;0.52;;;24.10;95.40;;;;;;5054248;28;20201;-75
2021/08/24 10:36:35;;;;;;;0.30;0.30;;;24.30;99.00;;;;;;5034902;28;20206;-74
2021/08/24 10:39:06;;;;;;;1.35;0.73;;;24.60;95.60;;;;;;5053522;28;20245;-75
2021/08/24 10:41:37;;;;;;;35.83;0.90;;;24.90;96.60;;;;;;5035406;28;20664;-74
2021/08/24 10:44:16;;;;;;;0.20;0.20;;;24.80;92.00;;;;;;5052633;28;20205;-75
2021/08/24 10:47:03;;;;;;;1.52;0.45;;;24.30;93.90;;;;;;5034277;28;20731;-74
2021/08/24 10:49:28;;;;;;;0.30;0.30;;;24.40;94.60;;;;;;5053481;28;20201;-74
2021/08/24 10:52:31;;;;;;;0.22;0.22;;;24.30;95.70;;;;;;5033995;28;20209;-74
2021/08/24 10:55:41;;;;;;;0.32;0.32;;;24.20;92.50;;;;;;5053998;28;20323;-74
2021/08/24 10:58:18;;;;;;;0.70;0.60;;;23.80;93.50;;;;;;4991059;28;20679;-74
2021/08/24 11:00:55;;;;;;;0.28;0.28;;;24.00;95.10;;;;;;4990062;28;20686;-74
2021/08/24 11:03:47;;;;;;;0.20;0.20;;;24.40;95.50;;;;;;4974026;28;20691;-74
2021/08/24 11:06:22;;;;;;;0.45;0.45;;;24.40;91.80;;;;;;4989148;28;20211;-74
2021/08/24 11:09:05;;;;;;;0.57;0.30;;;24.40;93.50;;;;;;4974379;28;20198;-75
2021/08/24 11:11:36;;;;;;;0.20;0.20;;;24.30;92.20;;;;;;4989013;28;20724;-75
2021/08/24 11:14:25;;;;;;;0.38;0.38;;;24.10;93.20;;;;;;4991000;28;20290;-75
2021/08/24 11:17:04;;;;;;;0.70;0.70;;;24.20;92.10;;;;;;4982862;28;20271;-75
2021/08/24 11:19:57;;;;;;;0.20;0.20;;;24.50;92.50;;;;;;4984365;28;20231;-75
2021/08/24 11:22:37;;;;;;;0.55;0.50;;;24.70;91.50;;;;;;4975476;28;20630;-74
2021/08/24 11:25:40;;;;;;;0.10;0.10;;;24.90;92.70;;;;;;4988914;28;20222;-74
2021/08/24 11:28:05;;;;;;;0.20;0.20;;;24.80;92.70;;;;;;4989101;28;20214;-74
2021/08/24 11:30:42;;;;;;;2.50;0.65;;;24.70;92.00;;;;;;4988843;28;20270;-74
2021/08/24 11:33:24;;;;;;;0.30;0.30;;;24.20;92.80;;;;;;5048281;28;20205;-74
2021/08/24 11:36:21;;;;;;;0.90;0.82;;;23.90;94.30;;;;;;5052149;28;20305;-75
2021/08/24 11:39:06;;;;;;;0.20;0.20;;;23.90;94.00;;;;;;5037032;28;20201;-74
2021/08/24 11:41:35;;;;;;;0.40;0.40;;;24.00;94.10;;;;;;5034409;28;20205;-74
2021/08/24 11:44:20;;;;;;;0.98;0.63;;;23.80;95.50;;;;;;5051554;28;20201;-75
2021/08/24 11:46:55;;;;;;;1.27;0.68;;;24.00;95.40;;;;;;5032652;28;20210;-74
2021/08/24 11:49:31;;;;;;;0.20;0.20;;;24.00;95.50;;;;;;5051035;28;20201;-76
2021/08/24 11:52:25;;;;;;;0.47;0.47;;;24.20;95.80;;;;;;5052575;28;20243;-73
2021/08/24 11:55:03;;;;;;;0.32;0.32;;;24.00;96.80;;;;;;5052354;28;20202;-74
2021/08/24 11:58:02;;;;;;;0.45;0.45;;;23.70;97.60;;;;;;5050680;28;20208;-74
2021/08/24 12:00:29;;;;;;;0.20;0.20;;;24.00;97.80;;;;;;5052019;28;20388;-74
2021/08/24 12:02:55;;;;;;;0.20;0.20;;;24.30;98.40;;;;;;5051097;28;20216;-75
2021/08/24 12:05:28;;;;;;;0.40;0.35;;;24.10;97.50;;;;;;5055638;28;20586;-72
2021/08/24 12:08:23;;;;;;;0.80;0.40;;;24.00;97.10;;;;;;5055089;28;20224;-72
2021/08/24 12:10:51;;;;;;;0.43;0.40;;;24.20;96.80;;;;;;5033590;28;20239;-73
2021/08/24 12:13:33;;;;;;;0.65;0.60;;;24.00;96.30;;;;;;5055359;28;20246;-72
2021/08/24 12:16:08;;;;;;;0.40;0.40;;;23.80;96.80;;;;;;5054820;28;20209;-74
2021/08/24 12:18:34;;;;;;;0.60;0.60;;;23.70;97.20;;;;;;5025447;28;20205;-74
2021/08/24 12:21:27;;;;;;;0.20;0.20;;;23.70;97.70;;;;;;5031644;28;20560;-73
2021/08/24 12:23:54;;;;;;;1.85;0.50;;;23.70;97.70;;;;;;5036847;28;20299;-74
2021/08/24 12:26:24;;;;;;;0.30;0.30;;;23.80;96.90;;;;;;5054725;28;20284;-74
2021/08/24 12:28:52;;;;;;;0.38;0.38;;;23.80;96.50;;;;;;5055904;28;20212;-75
2021/08/24 12:31:29;;;;;;;0.50;0.50;;;23.80;96.70;;;;;;5054686;28;20213;-74
2021/08/24 12:33:55;;;;;;;0.40;0.40;;;23.70;96.60;;;;;;5049979;28;20209;-76
2021/08/24 12:36:24;;;;;;;0.20;0.20;;;23.70;96.70;;;;;;5036440;28;20201;-76
2021/08/24 12:38:54;;;;;;;0.20;0.20;;;23.20;96.90;;;;;;5054657;28;20609;-75
2021/08/24 12:41:42;;;;;;;0.40;0.40;;;23.00;98.00;;;;;;5055914;28;20205;-76
2021/08/24 12:44:14;;;;;;;2.42;0.82;;;23.00;98.50;;;;;;5036868;28;20351;-76
2021/08/24 12:46:42;;;;;;;2.42;0.70;;;23.10;98.40;;;;;;5046646;28;20227;-76
2021/08/24 12:49:14;;;;;;;0.28;0.28;;;23.30;98.40;;;;;;5056022;28;20215;-77
2021/08/24 12:51:46;;;;;;;0.50;0.40;;;23.40;98.30;;;;;;5046424;28;20250;-77
2021/08/24 12:54:16;;;;;;;0.20;0.20;;;23.20;98.40;;;;;;5037743;28;20209;-76
2021/08/24 12:57:02;;;;;;;0.30;0.30;;;23.10;98.20;;;;;;5055617;28;20206;-76
2021/08/24 12:59:32;;;;;;;0.30;0.30;;;23.20;98.10;;;;;;5054401;28;20553;-76
2021/08/24 13:02:25;;;;;;;0.10;0.10;;;23.00;98.80;;;;;;5055258;28;20205;-76
2021/08/24 13:04:54;;;;;;;0.20;0.20;;;23.00;98.50;;;;;;5037243;28;20229;-76
2021/08/24 13:07:31;;;;;;;0.52;0.52;;;23.10;99.90;;;;;;5055222;28;20214;-76
2021/08/24 13:10:13;;;;;;;0.17;0.17;;;23.30;98.50;;;;;;5056120;28;20553;-76
2021/08/24 13:12:41;;;;;;;0.15;0.15;;;23.00;99.50;;;;;;5055369;28;20208;-76